createdAt,value
2023-05-16T00:00:45.506Z,98.78
2023-05-16T00:03:13.210Z,100.00
2023-05-16T00:05:42.231Z,100.00
2023-05-16T00:08:09.882Z,100.00
2023-05-16T00:10:37.522Z,100.00
2023-05-16T00:13:05.178Z,100.00
2023-05-16T00:15:33.351Z,100.00
2023-05-16T00:18:01.121Z,100.00
2023-05-16T00:20:29.664Z,100.00
2023-05-16T00:23:01.059Z,100.00
2023-05-16T00:25:28.971Z,100.00
2023-05-16T00:27:56.536Z,100.00
2023-05-16T00:30:24.360Z,100.00
2023-05-16T00:32:52.842Z,100.00
2023-05-16T00:35:20.509Z,100.00
2023-05-16T00:37:51.004Z,100.00
2023-05-16T00:40:20.043Z,100.00
2023-05-16T00:42:47.762Z,100.00
2023-05-16T00:45:15.427Z,100.00
2023-05-16T00:47:44.215Z,100.00
2023-05-16T00:50:12.254Z,100.00
2023-05-16T00:52:39.962Z,100.00
2023-05-16T00:55:08.133Z,100.00
2023-05-16T00:57:37.056Z,100.00
2023-05-16T01:00:05.498Z,100.00
2023-05-16T01:02:34.061Z,100.00
2023-05-16T01:05:01.833Z,100.00
2023-05-16T01:07:29.878Z,100.00
2023-05-16T01:09:57.813Z,100.00
2023-05-16T01:12:31.140Z,100.00
2023-05-16T01:15:06.238Z,100.00
2023-05-16T01:17:37.976Z,100.00
2023-05-16T01:20:12.147Z,100.00
2023-05-16T01:22:47.722Z,100.00
2023-05-16T01:25:22.833Z,100.00
2023-05-16T01:27:53.066Z,100.00
2023-05-16T01:30:21.223Z,100.00
2023-05-16T01:32:48.842Z,100.00
2023-05-16T01:35:17.989Z,100.00
2023-05-16T01:37:49.828Z,100.00
2023-05-16T01:40:19.862Z,100.00
2023-05-16T01:42:48.858Z,100.00
2023-05-16T01:45:21.701Z,100.00
2023-05-16T01:47:53.558Z,100.00
2023-05-16T01:50:23.762Z,100.00
2023-05-16T01:52:54.615Z,100.00
2023-05-16T01:55:26.070Z,100.00
2023-05-16T01:57:54.577Z,100.00
2023-05-16T02:00:24.306Z,100.00
2023-05-16T02:02:51.964Z,100.00
2023-05-16T02:05:19.582Z,100.00
2023-05-16T02:07:47.651Z,100.00
2023-05-16T02:10:15.388Z,100.00
2023-05-16T02:12:43.398Z,100.00
2023-05-16T02:15:11.899Z,100.00
2023-05-16T02:17:41.605Z,100.00
2023-05-16T02:20:10.279Z,100.00
2023-05-16T02:22:39.175Z,100.00
2023-05-16T02:25:07.550Z,100.00
2023-05-16T02:27:36.180Z,100.00
2023-05-16T02:30:03.980Z,100.00
2023-05-16T02:32:31.795Z,100.00
2023-05-16T02:35:00.776Z,100.00
2023-05-16T02:37:28.452Z,100.00
2023-05-16T02:39:56.325Z,100.00
2023-05-16T02:42:24.012Z,100.00
2023-05-16T02:44:51.592Z,100.00
2023-05-16T02:47:19.214Z,100.00
2023-05-16T02:49:46.873Z,100.00
2023-05-16T02:52:16.063Z,100.00
2023-05-16T02:54:44.480Z,100.00
2023-05-16T02:57:13.257Z,100.00
2023-05-16T02:59:40.865Z,100.00
2023-05-16T03:02:08.555Z,100.00
2023-05-16T03:04:36.388Z,100.00
2023-05-16T03:07:04.054Z,100.00
2023-05-16T03:09:33.145Z,100.00
2023-05-16T03:12:00.849Z,100.00
2023-05-16T03:14:28.461Z,100.00
2023-05-16T03:16:56.141Z,100.00
2023-05-16T03:19:24.191Z,100.00
2023-05-16T03:21:51.890Z,100.00
2023-05-16T03:24:21.680Z,100.00
2023-05-16T03:26:51.098Z,99.75
2023-05-16T03:29:22.134Z,98.85
2023-05-16T03:31:49.821Z,98.60
2023-05-16T03:34:17.935Z,97.54
2023-05-16T03:36:45.651Z,97.55
2023-05-16T03:39:13.347Z,97.44
2023-05-16T03:41:40.996Z,96.48
2023-05-16T03:44:09.946Z,96.15
2023-05-16T03:46:37.667Z,96.07
2023-05-16T03:49:05.328Z,96.38
2023-05-16T03:51:33.278Z,97.18
2023-05-16T03:54:01.102Z,96.39
2023-05-16T03:56:28.751Z,96.20
2023-05-16T03:58:56.366Z,96.06
2023-05-16T04:01:25.591Z,96.11
2023-05-16T04:03:53.282Z,96.99
2023-05-16T04:06:21.478Z,96.25
2023-05-16T04:08:49.348Z,95.70
2023-05-16T04:11:16.924Z,96.28
2023-05-16T04:13:44.737Z,95.57
2023-05-16T04:16:12.974Z,95.37
2023-05-16T04:18:42.066Z,94.98
2023-05-16T04:21:10.918Z,95.30
2023-05-16T04:23:38.578Z,94.18
2023-05-16T04:26:06.125Z,93.64
2023-05-16T04:28:33.745Z,93.24
2023-05-16T04:31:02.001Z,92.32
2023-05-16T04:33:29.715Z,91.88
2023-05-16T04:35:59.294Z,92.20
2023-05-16T04:38:26.885Z,92.26
2023-05-16T04:40:54.709Z,91.26
2023-05-16T04:43:22.354Z,91.78
2023-05-16T04:45:50.691Z,91.32
2023-05-16T04:48:18.334Z,91.03
2023-05-16T04:50:46.043Z,91.21
2023-05-16T04:53:15.310Z,91.28
2023-05-16T04:55:43.079Z,90.74
2023-05-16T04:58:10.815Z,90.82
2023-05-16T05:00:38.504Z,90.73
2023-05-16T05:03:06.739Z,91.27
2023-05-16T05:05:34.594Z,90.54
2023-05-16T05:08:02.357Z,90.56
2023-05-16T05:10:32.085Z,90.38
2023-05-16T05:12:59.729Z,90.15
2023-05-16T05:15:27.856Z,89.74
2023-05-16T05:17:55.778Z,88.37
2023-05-16T05:20:23.469Z,89.63
2023-05-16T05:22:51.092Z,89.57
2023-05-16T05:25:18.738Z,89.81
2023-05-16T05:27:48.127Z,89.16
2023-05-16T05:30:16.268Z,88.95
2023-05-16T05:32:44.010Z,88.19
2023-05-16T05:35:11.675Z,87.66
2023-05-16T05:37:39.287Z,87.62
2023-05-16T05:40:07.744Z,86.44
2023-05-16T05:42:35.346Z,86.10
2023-05-16T05:45:04.750Z,87.26
2023-05-16T05:47:32.618Z,87.08
2023-05-16T05:50:00.517Z,86.17
2023-05-16T05:52:29.286Z,85.96
2023-05-16T05:54:57.873Z,85.64
2023-05-16T05:57:25.444Z,83.38
2023-05-16T05:59:53.132Z,83.54
2023-05-16T06:02:22.170Z,82.99
2023-05-16T06:04:49.737Z,82.81
2023-05-16T06:07:18.346Z,82.76
2023-05-16T06:09:45.933Z,83.08
2023-05-16T06:12:13.630Z,84.25
2023-05-16T06:14:41.212Z,80.77
2023-05-16T06:17:08.898Z,81.51
2023-05-16T06:19:37.887Z,80.07
2023-05-16T06:22:05.627Z,79.08
2023-05-16T06:24:33.194Z,79.93
2023-05-16T06:27:00.969Z,78.97
2023-05-16T06:29:28.532Z,78.55
2023-05-16T06:31:56.129Z,78.80
2023-05-16T06:34:28.080Z,78.03
2023-05-16T06:36:57.067Z,79.21
2023-05-16T06:39:24.633Z,77.96
2023-05-16T06:41:56.240Z,78.42
2023-05-16T06:44:24.294Z,78.43
2023-05-16T06:46:51.930Z,77.38
2023-05-16T06:49:19.649Z,78.41
2023-05-16T06:51:47.259Z,77.35
2023-05-16T06:54:16.282Z,77.67
2023-05-16T06:56:43.987Z,76.49
2023-05-16T06:59:11.597Z,76.65
2023-05-16T07:01:39.380Z,76.54
2023-05-16T07:04:07.493Z,77.79
2023-05-16T07:06:35.186Z,75.88
2023-05-16T07:09:03.195Z,76.90
2023-05-16T07:11:32.363Z,77.12
2023-05-16T07:13:59.973Z,73.76
2023-05-16T07:16:28.571Z,72.51
2023-05-16T07:18:56.468Z,71.45
2023-05-16T07:21:24.119Z,71.24
2023-05-16T07:23:51.870Z,68.63
2023-05-16T07:26:22.207Z,67.44
2023-05-16T07:28:51.767Z,67.91
2023-05-16T07:31:19.670Z,68.24
2023-05-16T07:33:49.043Z,68.20
2023-05-16T07:36:17.784Z,69.43
2023-05-16T07:38:46.063Z,66.42
2023-05-16T07:41:13.766Z,64.73
2023-05-16T07:43:41.356Z,64.49
2023-05-16T07:46:11.134Z,63.74
2023-05-16T07:48:38.839Z,61.83
2023-05-16T07:51:06.487Z,59.61
2023-05-16T07:53:34.648Z,61.25
2023-05-16T07:56:02.367Z,59.20
2023-05-16T07:58:29.982Z,63.91
2023-05-16T08:00:57.737Z,60.35
2023-05-16T08:03:27.055Z,59.19
2023-05-16T08:05:54.809Z,59.23
2023-05-16T08:08:22.565Z,60.40
2023-05-16T08:10:50.251Z,59.96
2023-05-16T08:13:17.864Z,60.91
2023-05-16T08:15:45.615Z,61.41
2023-05-16T08:18:14.128Z,63.05
2023-05-16T08:20:43.363Z,61.74
2023-05-16T08:23:11.002Z,60.74
2023-05-16T08:25:38.789Z,61.04
2023-05-16T08:28:06.428Z,61.84
2023-05-16T08:30:34.198Z,63.34
2023-05-16T08:33:05.016Z,64.70
2023-05-16T08:35:32.862Z,62.04
2023-05-16T08:38:03.012Z,62.32
2023-05-16T08:40:31.413Z,59.28
2023-05-16T08:42:59.205Z,60.00
2023-05-16T08:45:27.354Z,56.63
2023-05-16T08:47:55.908Z,52.70
2023-05-16T08:50:23.970Z,55.02
2023-05-16T08:52:52.860Z,54.94
2023-05-16T08:55:22.186Z,57.56
2023-05-16T08:57:50.855Z,59.99
2023-05-16T09:00:19.215Z,54.84
2023-05-16T09:02:47.164Z,53.24
2023-05-16T09:05:15.750Z,53.13
2023-05-16T09:07:43.960Z,52.25
2023-05-16T09:10:12.090Z,52.28
2023-05-16T09:12:41.957Z,50.26
2023-05-16T09:15:10.143Z,50.91
2023-05-16T09:17:41.381Z,50.38
2023-05-16T09:20:10.080Z,50.89
2023-05-16T09:22:38.140Z,48.56
2023-05-16T09:25:08.622Z,49.85
2023-05-16T09:27:42.020Z,49.70
2023-05-16T09:30:10.356Z,50.76
2023-05-16T09:32:38.077Z,52.79
2023-05-16T09:35:06.214Z,50.64
2023-05-16T09:37:33.904Z,49.84
2023-05-16T09:40:01.760Z,48.65
2023-05-16T09:42:29.438Z,48.56
2023-05-16T09:44:58.460Z,49.10
2023-05-16T09:47:28.845Z,48.06
2023-05-16T09:49:57.414Z,49.23
2023-05-16T09:52:27.820Z,49.84
2023-05-16T09:54:55.824Z,49.62
2023-05-16T09:57:24.014Z,49.08
2023-05-16T09:59:51.675Z,46.94
2023-05-16T10:02:21.855Z,45.21
2023-05-16T10:04:49.628Z,46.44
2023-05-16T10:07:17.513Z,47.17
2023-05-16T10:09:46.255Z,47.57
2023-05-16T10:12:14.440Z,47.02
2023-05-16T10:14:43.198Z,48.89
2023-05-16T10:17:12.554Z,48.63
2023-05-16T10:19:42.422Z,46.15
2023-05-16T10:22:11.448Z,46.47
2023-05-16T10:24:43.278Z,46.37
2023-05-16T10:27:11.115Z,45.17
2023-05-16T10:29:50.296Z,46.28
2023-05-16T10:32:23.088Z,46.24
2023-05-16T10:34:52.634Z,46.03
2023-05-16T10:37:20.309Z,47.13
2023-05-16T10:39:48.120Z,45.51
2023-05-16T10:42:18.352Z,45.76
2023-05-16T10:44:51.632Z,46.52
2023-05-16T10:47:26.282Z,46.78
2023-05-16T10:49:55.328Z,44.90
2023-05-16T10:52:33.772Z,44.96
2023-05-16T10:55:03.273Z,44.19
2023-05-16T10:57:34.137Z,45.85
2023-05-16T11:00:04.188Z,45.81
2023-05-16T11:02:33.860Z,45.46
2023-05-16T11:05:03.658Z,46.50
2023-05-16T11:07:32.084Z,46.31
2023-05-16T11:10:05.373Z,46.68
2023-05-16T11:12:43.342Z,44.73
2023-05-16T11:15:21.033Z,44.11
2023-05-16T11:17:48.967Z,43.94
2023-05-16T11:20:35.202Z,42.79
2023-05-16T11:23:17.730Z,42.85
2023-05-16T11:25:47.124Z,44.05
2023-05-16T11:28:14.980Z,45.67
2023-05-16T11:30:44.160Z,45.67
2023-05-16T11:33:12.982Z,47.12
2023-05-16T11:35:40.753Z,46.62
2023-05-16T11:38:13.018Z,45.76
2023-05-16T11:40:43.608Z,46.71
2023-05-16T11:43:13.253Z,46.01
2023-05-16T11:45:41.145Z,44.20
2023-05-16T11:48:11.716Z,45.08
2023-05-16T11:50:42.165Z,46.72
2023-05-16T11:53:09.836Z,46.66
2023-05-16T11:55:42.344Z,48.18
2023-05-16T11:58:12.379Z,48.96
2023-05-16T12:00:48.401Z,50.51
2023-05-16T12:03:16.384Z,48.19
2023-05-16T12:05:51.425Z,47.36
2023-05-16T12:08:19.092Z,47.20
2023-05-16T12:10:46.802Z,45.87
2023-05-16T12:13:16.824Z,44.33
2023-05-16T12:15:44.556Z,43.18
2023-05-16T12:18:12.426Z,42.88
2023-05-16T12:20:40.463Z,43.18
2023-05-16T12:23:11.874Z,43.04
2023-05-16T12:25:43.876Z,42.73
2023-05-16T12:28:12.874Z,41.96
2023-05-16T12:30:43.345Z,41.44
2023-05-16T12:33:11.699Z,41.68
2023-05-16T12:35:40.717Z,42.50
2023-05-16T12:38:09.069Z,42.70
2023-05-16T12:40:38.124Z,41.85
2023-05-16T12:43:06.004Z,42.71
2023-05-16T12:45:35.435Z,41.00
2023-05-16T12:48:12.871Z,41.82
2023-05-16T12:50:40.629Z,42.28
2023-05-16T12:53:12.415Z,43.56
2023-05-16T12:55:41.194Z,43.26
2023-05-16T12:58:09.136Z,43.56
2023-05-16T13:00:37.529Z,43.02
2023-05-16T13:03:06.255Z,43.00
2023-05-16T13:05:36.181Z,43.93
2023-05-16T13:08:04.361Z,42.75
2023-05-16T13:10:32.097Z,43.04
2023-05-16T13:13:00.179Z,43.68
2023-05-16T13:15:28.625Z,41.86
2023-05-16T13:17:56.692Z,41.83
2023-05-16T13:20:24.745Z,42.60
2023-05-16T13:22:53.764Z,42.20
2023-05-16T13:25:21.405Z,43.43
2023-05-16T13:27:49.541Z,42.16
2023-05-16T13:30:17.460Z,41.99
2023-05-16T13:32:45.158Z,42.50
2023-05-16T13:35:13.385Z,43.21
2023-05-16T13:37:41.425Z,43.00
2023-05-16T13:40:11.232Z,43.28
2023-05-16T13:42:39.019Z,44.15
2023-05-16T13:45:07.888Z,43.82
2023-05-16T13:47:35.718Z,44.27
2023-05-16T13:50:07.732Z,43.91
2023-05-16T13:52:37.732Z,44.34
2023-05-16T13:55:06.069Z,45.15
2023-05-16T13:57:35.222Z,45.11
2023-05-16T14:00:27.977Z,44.70
2023-05-16T14:02:52.965Z,45.33
2023-05-16T14:05:20.778Z,44.75
2023-05-16T14:07:48.472Z,45.29
2023-05-16T14:10:16.147Z,45.86
2023-05-16T14:12:45.132Z,45.59
2023-05-16T14:15:12.817Z,46.28
2023-05-16T14:17:40.884Z,46.45
2023-05-16T14:20:11.915Z,45.38
2023-05-16T14:22:39.705Z,46.35
2023-05-16T14:25:08.427Z,41.43
2023-05-16T14:27:36.053Z,42.29
2023-05-16T14:30:05.410Z,41.38
2023-05-16T14:32:33.150Z,42.97
2023-05-16T14:35:00.813Z,41.86
2023-05-16T14:37:28.501Z,41.19
2023-05-16T14:39:57.278Z,41.62
2023-05-16T14:42:24.930Z,41.11
2023-05-16T14:44:52.526Z,41.35
2023-05-16T14:47:21.498Z,41.66
2023-05-16T14:49:49.127Z,42.28
2023-05-16T14:52:16.774Z,41.61
2023-05-16T14:54:44.475Z,41.00
2023-05-16T14:57:12.157Z,42.13
2023-05-16T14:59:39.797Z,42.88
2023-05-16T15:02:08.185Z,42.11
2023-05-16T15:04:37.438Z,41.97
2023-05-16T15:07:05.284Z,42.87
2023-05-16T15:09:32.958Z,43.86
2023-05-16T15:13:42.285Z,46.49
2023-05-16T15:16:10.236Z,47.59
2023-05-16T15:18:38.168Z,48.64
2023-05-16T15:21:06.063Z,48.42
2023-05-16T15:23:34.116Z,48.85
2023-05-16T15:26:02.115Z,49.47
2023-05-16T15:28:30.014Z,49.41
2023-05-16T15:30:59.202Z,50.44
2023-05-16T15:33:27.086Z,48.70
2023-05-16T15:35:54.901Z,46.86
2023-05-16T15:38:22.757Z,45.98
2023-05-16T15:40:55.248Z,45.89
2023-05-16T15:43:29.393Z,43.45
2023-05-16T15:45:57.169Z,43.07
2023-05-16T15:48:26.379Z,42.98
2023-05-16T15:50:54.366Z,43.29
2023-05-16T15:53:22.415Z,42.81
2023-05-16T15:55:51.173Z,43.37
2023-05-16T15:58:20.625Z,42.32
2023-05-16T16:00:50.187Z,42.18
2023-05-16T16:03:18.198Z,42.80
2023-05-16T16:05:48.039Z,43.13
2023-05-16T16:08:16.146Z,42.45
2023-05-16T16:10:44.046Z,43.75
2023-05-16T16:13:11.863Z,43.42
2023-05-16T16:15:42.111Z,43.59
2023-05-16T16:18:11.680Z,43.72
2023-05-16T16:20:39.636Z,44.03
2023-05-16T16:23:09.144Z,45.03
2023-05-16T16:25:37.455Z,44.94
2023-05-16T16:28:05.709Z,45.08
2023-05-16T16:30:33.709Z,45.93
2023-05-16T16:33:01.726Z,45.92
2023-05-16T16:35:29.955Z,46.64
2023-05-16T16:38:06.261Z,46.11
2023-05-16T16:40:36.431Z,46.52
2023-05-16T16:43:06.024Z,46.14
2023-05-16T16:45:34.263Z,46.87
2023-05-16T16:48:02.233Z,46.60
2023-05-16T16:50:31.138Z,46.51
2023-05-16T16:53:01.791Z,45.51
2023-05-16T16:55:29.720Z,46.18
2023-05-16T16:57:59.187Z,46.32
2023-05-16T17:00:27.362Z,46.08
2023-05-16T17:02:55.363Z,45.99
2023-05-16T17:05:23.655Z,45.51
2023-05-16T17:07:51.631Z,46.04
2023-05-16T17:10:21.075Z,45.98
2023-05-16T17:12:49.979Z,46.67
2023-05-16T17:15:19.331Z,46.11
2023-05-16T17:17:49.088Z,47.50
2023-05-16T17:20:17.076Z,46.62
2023-05-16T17:22:46.068Z,47.17
2023-05-16T17:25:13.962Z,47.19
2023-05-16T17:27:41.752Z,47.27
2023-05-16T17:30:10.494Z,47.19
2023-05-16T17:32:40.627Z,47.50
2023-05-16T17:35:08.972Z,47.96
2023-05-16T17:37:36.841Z,48.52
2023-05-16T17:40:05.871Z,48.38
2023-05-16T17:42:33.791Z,48.13
2023-05-16T17:45:04.350Z,48.75
2023-05-16T17:47:32.269Z,49.62
2023-05-16T17:50:01.676Z,48.78
2023-05-16T17:52:29.670Z,48.39
2023-05-16T17:54:57.795Z,47.97
2023-05-16T17:57:25.690Z,48.21
2023-05-16T17:59:53.901Z,48.34
2023-05-16T18:02:21.843Z,48.79
2023-05-16T18:04:49.704Z,49.46
2023-05-16T18:07:18.886Z,49.74
2023-05-16T18:09:46.742Z,50.79
2023-05-16T18:12:15.331Z,50.25
2023-05-16T18:14:45.244Z,50.95
2023-05-16T18:17:13.428Z,51.67
2023-05-16T18:19:41.582Z,52.10
2023-05-16T18:22:11.917Z,52.58
2023-05-16T18:24:41.386Z,53.21
2023-05-16T18:27:09.387Z,54.20
2023-05-16T18:29:37.332Z,54.37
2023-05-16T18:32:05.676Z,54.77
2023-05-16T18:34:34.100Z,54.65
2023-05-16T18:37:02.079Z,56.80
2023-05-16T18:39:32.401Z,55.79
2023-05-16T18:42:01.376Z,57.17
2023-05-16T18:44:29.272Z,55.03
2023-05-16T18:46:58.635Z,56.54
2023-05-16T18:49:26.694Z,57.48
2023-05-16T18:51:54.621Z,57.42
2023-05-16T18:54:24.240Z,58.40
2023-05-16T18:56:52.326Z,58.42
2023-05-16T18:59:21.596Z,60.31
2023-05-16T19:01:49.356Z,58.86
2023-05-16T19:04:17.340Z,57.85
2023-05-16T19:06:46.068Z,58.53
2023-05-16T19:09:14.174Z,58.36
2023-05-16T19:11:42.177Z,59.93
2023-05-16T19:14:10.015Z,60.32
2023-05-16T19:16:39.254Z,60.38
2023-05-16T19:19:08.346Z,60.60
2023-05-16T19:21:36.577Z,60.59
2023-05-16T19:24:04.606Z,60.66
2023-05-16T19:26:32.448Z,61.26
2023-05-16T19:29:00.284Z,62.16
2023-05-16T19:31:28.313Z,63.10
2023-05-16T19:33:57.552Z,63.83
2023-05-16T19:36:25.440Z,64.64
2023-05-16T19:38:53.322Z,64.77
2023-05-16T19:41:21.484Z,64.93
2023-05-16T19:43:49.281Z,65.13
2023-05-16T19:46:17.154Z,66.00
2023-05-16T19:48:45.076Z,66.03
2023-05-16T19:51:14.449Z,66.86
2023-05-16T19:53:42.837Z,67.35
2023-05-16T19:56:10.975Z,67.80
2023-05-16T19:58:38.841Z,68.66
2023-05-16T20:01:06.694Z,69.15
2023-05-16T20:03:34.815Z,70.81
2023-05-16T20:06:02.851Z,72.21
2023-05-16T20:08:32.835Z,73.04
2023-05-16T20:11:00.974Z,73.86
2023-05-16T20:13:30.415Z,74.27
2023-05-16T20:15:58.671Z,75.15
2023-05-16T20:18:27.204Z,74.70
2023-05-16T20:20:58.545Z,75.22
2023-05-16T20:23:26.704Z,75.32
2023-05-16T20:25:56.389Z,75.84
2023-05-16T20:28:24.239Z,75.92
2023-05-16T20:30:51.994Z,76.00
2023-05-16T20:33:20.030Z,76.32
2023-05-16T20:35:47.888Z,76.98
2023-05-16T20:38:16.696Z,76.71
2023-05-16T20:40:44.553Z,77.90
2023-05-16T20:43:13.768Z,77.70
2023-05-16T20:45:41.707Z,77.69
2023-05-16T20:48:09.676Z,78.29
2023-05-16T20:50:38.915Z,78.86
2023-05-16T20:53:06.756Z,78.98
2023-05-16T20:55:34.729Z,78.39
2023-05-16T20:58:02.708Z,77.69
2023-05-16T21:00:33.558Z,78.06
2023-05-16T21:03:01.923Z,77.72
2023-05-16T21:05:29.890Z,77.64
2023-05-16T21:07:57.808Z,76.64
2023-05-16T21:10:25.636Z,77.15
2023-05-16T21:12:53.458Z,76.90
2023-05-16T21:15:23.322Z,77.55
2023-05-16T21:17:53.002Z,76.79
2023-05-16T21:20:22.232Z,77.33
2023-05-16T21:22:50.291Z,76.78
2023-05-16T21:25:18.115Z,76.26
2023-05-16T21:27:46.011Z,76.52
2023-05-16T21:30:14.857Z,76.46
2023-05-16T21:32:42.752Z,76.52
2023-05-16T21:35:12.122Z,76.96
2023-05-16T21:37:39.944Z,77.48
2023-05-16T21:40:10.011Z,77.61
2023-05-16T21:42:38.079Z,77.45
2023-05-16T21:45:12.356Z,77.31
2023-05-16T21:47:40.213Z,76.86
2023-05-16T21:50:09.379Z,77.02
2023-05-16T21:52:38.615Z,77.19
2023-05-16T21:55:08.299Z,77.27
2023-05-16T21:57:36.190Z,77.37
2023-05-16T22:00:06.682Z,78.63
2023-05-16T22:02:36.306Z,77.83
2023-05-16T22:05:04.777Z,77.37
2023-05-16T22:07:32.680Z,77.24
2023-05-16T22:10:02.039Z,77.34
2023-05-16T22:12:29.891Z,77.93
2023-05-16T22:14:58.384Z,78.02
2023-05-16T22:17:26.434Z,77.80
2023-05-16T22:19:54.267Z,78.27
2023-05-16T22:22:22.146Z,78.02
2023-05-16T22:24:49.982Z,78.08
2023-05-16T22:27:19.144Z,78.69
2023-05-16T22:29:46.988Z,78.45
2023-05-16T22:32:14.996Z,77.88
2023-05-16T22:34:42.840Z,77.98
2023-05-16T22:37:11.265Z,78.82
2023-05-16T22:39:39.184Z,79.38
2023-05-16T22:42:07.377Z,79.89
2023-05-16T22:44:36.580Z,80.20
2023-05-16T22:47:04.440Z,79.58
2023-05-16T22:49:32.305Z,80.19
2023-05-16T22:52:00.188Z,80.17
2023-05-16T22:54:28.097Z,80.32
2023-05-16T22:56:56.062Z,80.51
2023-05-16T22:59:24.008Z,81.10
2023-05-16T23:01:53.208Z,81.45
2023-05-16T23:04:21.027Z,81.50
2023-05-16T23:06:48.963Z,81.89
2023-05-16T23:09:16.757Z,81.55
2023-05-16T23:11:44.552Z,81.77
2023-05-16T23:14:12.373Z,82.60
2023-05-16T23:16:40.174Z,82.80
2023-05-16T23:19:09.822Z,82.47
2023-05-16T23:21:38.380Z,82.26
2023-05-16T23:24:06.608Z,82.87
2023-05-16T23:26:34.575Z,82.58
2023-05-16T23:29:02.360Z,82.43
2023-05-16T23:31:30.205Z,82.58
2023-05-16T23:33:58.068Z,82.54
2023-05-16T23:36:27.407Z,82.41
2023-05-16T23:38:55.165Z,82.70
2023-05-16T23:41:23.015Z,83.64
2023-05-16T23:43:50.815Z,83.71
2023-05-16T23:46:18.709Z,83.72
2023-05-16T23:48:46.788Z,84.61
2023-05-16T23:51:14.655Z,84.80
2023-05-16T23:53:44.008Z,85.25
2023-05-16T23:56:11.783Z,85.39
2023-05-16T23:58:39.582Z,85.38
